sensor_id;sensor_type;location;lat;lon;timestamp;temperature;humidity
52889;DHT22;41413;52.770;6.892;2022-08-19T00:01:59;17.90;99.90
52889;DHT22;41413;52.770;6.892;2022-08-19T00:04:30;17.90;99.90
52889;DHT22;41413;52.770;6.892;2022-08-19T00:06:58;17.90;99.90
52889;DHT22;41413;52.770;6.892;2022-08-19T00:09:25;17.80;99.90
52889;DHT22;41413;52.770;6.892;2022-08-19T00:11:53;17.80;99.90
52889;DHT22;41413;52.770;6.892;2022-08-19T00:14:22;17.90;99.90
52889;DHT22;41413;52.770;6.892;2022-08-19T00:16:50;17.80;99.90
52889;DHT22;41413;52.770;6.892;2022-08-19T00:19:21;17.80;99.90
52889;DHT22;41413;52.770;6.892;2022-08-19T00:21:48;17.80;99.90
52889;DHT22;41413;52.770;6.892;2022-08-19T00:24:15;17.80;99.90
52889;DHT22;41413;52.770;6.892;2022-08-19T00:26:43;17.80;99.90
52889;DHT22;41413;52.770;6.892;2022-08-19T00:29:14;17.70;99.90
52889;DHT22;41413;52.770;6.892;2022-08-19T00:31:42;17.70;99.90
52889;DHT22;41413;52.770;6.892;2022-08-19T00:34:10;17.60;99.90
52889;DHT22;41413;52.770;6.892;2022-08-19T00:36:38;17.60;99.90
52889;DHT22;41413;52.770;6.892;2022-08-19T00:39:05;17.60;99.90
52889;DHT22;41413;52.770;6.892;2022-08-19T00:41:33;17.60;99.90
52889;DHT22;41413;52.770;6.892;2022-08-19T00:44:00;17.60;99.90
52889;DHT22;41413;52.770;6.892;2022-08-19T00:46:28;17.60;99.90
52889;DHT22;41413;52.770;6.892;2022-08-19T00:48:56;17.50;99.90
52889;DHT22;41413;52.770;6.892;2022-08-19T00:51:26;17.50;99.90
52889;DHT22;41413;52.770;6.892;2022-08-19T00:53:55;17.50;99.90
52889;DHT22;41413;52.770;6.892;2022-08-19T00:56:23;17.50;99.90
52889;DHT22;41413;52.770;6.892;2022-08-19T00:58:50;17.50;99.90
52889;DHT22;41413;52.770;6.892;2022-08-19T01:01:17;17.50;99.90
52889;DHT22;41413;52.770;6.892;2022-08-19T01:03:43;17.40;99.90
52889;DHT22;41413;52.770;6.892;2022-08-19T01:06:25;17.40;99.90
52889;DHT22;41413;52.770;6.892;2022-08-19T01:08:53;17.40;99.90
52889;DHT22;41413;52.770;6.892;2022-08-19T01:11:20;17.40;99.90
52889;DHT22;41413;52.770;6.892;2022-08-19T01:13:47;17.40;99.90
52889;DHT22;41413;52.770;6.892;2022-08-19T01:16:16;17.40;99.90
52889;DHT22;41413;52.770;6.892;2022-08-19T01:18:44;17.30;99.90
52889;DHT22;41413;52.770;6.892;2022-08-19T01:21:20;17.40;99.90
52889;DHT22;41413;52.770;6.892;2022-08-19T01:23:50;17.30;99.90
52889;DHT22;41413;52.770;6.892;2022-08-19T01:26:21;17.30;99.90
52889;DHT22;41413;52.770;6.892;2022-08-19T01:28:51;17.20;99.90
52889;DHT22;41413;52.770;6.892;2022-08-19T01:31:22;17.20;99.90
52889;DHT22;41413;52.770;6.892;2022-08-19T01:33:55;17.20;99.90
52889;DHT22;41413;52.770;6.892;2022-08-19T01:36:49;17.20;99.90
52889;DHT22;41413;52.770;6.892;2022-08-19T01:39:21;17.20;99.90
52889;DHT22;41413;52.770;6.892;2022-08-19T01:41:48;17.20;99.90
52889;DHT22;41413;52.770;6.892;2022-08-19T01:44:15;17.10;99.90
52889;DHT22;41413;52.770;6.892;2022-08-19T01:46:46;17.20;99.90
52889;DHT22;41413;52.770;6.892;2022-08-19T01:49:15;17.20;99.90
52889;DHT22;41413;52.770;6.892;2022-08-19T01:51:42;17.20;99.90
52889;DHT22;41413;52.770;6.892;2022-08-19T01:54:10;17.10;99.90
52889;DHT22;41413;52.770;6.892;2022-08-19T01:56:37;17.10;99.90
52889;DHT22;41413;52.770;6.892;2022-08-19T01:59:10;17.10;99.90
52889;DHT22;41413;52.770;6.892;2022-08-19T02:01:37;17.10;99.90
52889;DHT22;41413;52.770;6.892;2022-08-19T02:04:04;17.10;99.90
52889;DHT22;41413;52.770;6.892;2022-08-19T02:06:32;17.10;99.90
52889;DHT22;41413;52.770;6.892;2022-08-19T02:08:59;17.10;99.90
52889;DHT22;41413;52.770;6.892;2022-08-19T02:11:30;17.10;99.90
52889;DHT22;41413;52.770;6.892;2022-08-19T02:13:58;17.10;99.90
52889;DHT22;41413;52.770;6.892;2022-08-19T02:16:26;17.10;99.90
52889;DHT22;41413;52.770;6.892;2022-08-19T02:18:52;17.00;99.90
52889;DHT22;41413;52.770;6.892;2022-08-19T02:21:21;17.00;99.90
52889;DHT22;41413;52.770;6.892;2022-08-19T02:23:49;17.00;99.90
52889;DHT22;41413;52.770;6.892;2022-08-19T02:26:16;17.00;99.90
52889;DHT22;41413;52.770;6.892;2022-08-19T02:28:43;17.00;99.90
52889;DHT22;41413;52.770;6.892;2022-08-19T02:31:12;17.00;99.90
52889;DHT22;41413;52.770;6.892;2022-08-19T02:33:38;16.90;99.90
52889;DHT22;41413;52.770;6.892;2022-08-19T02:36:06;16.90;99.90
52889;DHT22;41413;52.770;6.892;2022-08-19T02:38:34;16.90;99.90
52889;DHT22;41413;52.770;6.892;2022-08-19T02:41:06;16.90;99.90
52889;DHT22;41413;52.770;6.892;2022-08-19T02:43:34;16.90;99.90
52889;DHT22;41413;52.770;6.892;2022-08-19T02:46:19;16.90;99.90
52889;DHT22;41413;52.770;6.892;2022-08-19T02:48:49;16.90;99.90
52889;DHT22;41413;52.770;6.892;2022-08-19T02:51:23;17.00;99.90
52889;DHT22;41413;52.770;6.892;2022-08-19T02:53:50;16.90;99.90
52889;DHT22;41413;52.770;6.892;2022-08-19T02:56:18;16.90;99.90
52889;DHT22;41413;52.770;6.892;2022-08-19T02:58:45;16.80;99.90
52889;DHT22;41413;52.770;6.892;2022-08-19T03:01:29;16.80;99.90
52889;DHT22;41413;52.770;6.892;2022-08-19T03:03:58;16.80;99.90
52889;DHT22;41413;52.770;6.892;2022-08-19T03:06:26;16.80;99.90
52889;DHT22;41413;52.770;6.892;2022-08-19T03:08:53;16.80;99.90
52889;DHT22;41413;52.770;6.892;2022-08-19T03:11:26;16.80;99.90
52889;DHT22;41413;52.770;6.892;2022-08-19T03:13:54;16.80;99.90
52889;DHT22;41413;52.770;6.892;2022-08-19T03:16:22;16.80;99.90
52889;DHT22;41413;52.770;6.892;2022-08-19T03:18:50;16.80;99.90
52889;DHT22;41413;52.770;6.892;2022-08-19T03:21:23;16.70;99.90
52889;DHT22;41413;52.770;6.892;2022-08-19T03:23:57;16.70;99.90
52889;DHT22;41413;52.770;6.892;2022-08-19T03:26:24;16.60;99.90
52889;DHT22;41413;52.770;6.892;2022-08-19T03:28:51;16.60;99.90
52889;DHT22;41413;52.770;6.892;2022-08-19T03:31:26;16.60;99.90
52889;DHT22;41413;52.770;6.892;2022-08-19T03:34:17;16.60;99.90
52889;DHT22;41413;52.770;6.892;2022-08-19T03:36:45;16.60;99.90
52889;DHT22;41413;52.770;6.892;2022-08-19T03:39:13;16.50;99.90
52889;DHT22;41413;52.770;6.892;2022-08-19T03:41:42;16.50;99.90
52889;DHT22;41413;52.770;6.892;2022-08-19T03:44:12;16.60;99.90
52889;DHT22;41413;52.770;6.892;2022-08-19T03:46:44;16.50;99.90
52889;DHT22;41413;52.770;6.892;2022-08-19T03:49:11;16.60;99.90
52889;DHT22;41413;52.770;6.892;2022-08-19T03:51:42;16.60;99.90
52889;DHT22;41413;52.770;6.892;2022-08-19T03:54:12;16.50;99.90
52889;DHT22;41413;52.770;6.892;2022-08-19T03:56:40;16.50;99.90
52889;DHT22;41413;52.770;6.892;2022-08-19T03:59:10;16.50;99.90
52889;DHT22;41413;52.770;6.892;2022-08-19T04:01:37;16.50;99.90
52889;DHT22;41413;52.770;6.892;2022-08-19T04:04:03;16.50;99.90
52889;DHT22;41413;52.770;6.892;2022-08-19T04:06:32;16.40;99.90
52889;DHT22;41413;52.770;6.892;2022-08-19T04:09:05;16.30;99.90
52889;DHT22;41413;52.770;6.892;2022-08-19T04:11:38;16.40;99.90
52889;DHT22;41413;52.770;6.892;2022-08-19T04:14:18;16.40;99.90
52889;DHT22;41413;52.770;6.892;2022-08-19T04:16:46;16.40;99.90
52889;DHT22;41413;52.770;6.892;2022-08-19T04:19:15;16.40;99.90
52889;DHT22;41413;52.770;6.892;2022-08-19T04:21:47;16.50;99.90
52889;DHT22;41413;52.770;6.892;2022-08-19T04:24:15;16.40;99.90
52889;DHT22;41413;52.770;6.892;2022-08-19T04:26:43;16.40;99.90
52889;DHT22;41413;52.770;6.892;2022-08-19T04:29:13;16.40;99.90
52889;DHT22;41413;52.770;6.892;2022-08-19T04:31:42;16.30;99.90
52889;DHT22;41413;52.770;6.892;2022-08-19T04:34:12;16.30;99.90
52889;DHT22;41413;52.770;6.892;2022-08-19T04:36:40;16.30;99.90
52889;DHT22;41413;52.770;6.892;2022-08-19T04:39:15;16.30;99.90
52889;DHT22;41413;52.770;6.892;2022-08-19T04:41:43;16.30;99.90
52889;DHT22;41413;52.770;6.892;2022-08-19T04:44:29;16.30;99.90
52889;DHT22;41413;52.770;6.892;2022-08-19T04:46:59;16.20;99.90
52889;DHT22;41413;52.770;6.892;2022-08-19T04:49:27;16.30;99.90
52889;DHT22;41413;52.770;6.892;2022-08-19T04:51:54;16.30;99.90
52889;DHT22;41413;52.770;6.892;2022-08-19T04:54:23;16.30;99.90
52889;DHT22;41413;52.770;6.892;2022-08-19T04:57:06;16.30;99.90
52889;DHT22;41413;52.770;6.892;2022-08-19T04:59:34;16.20;99.90
52889;DHT22;41413;52.770;6.892;2022-08-19T05:02:01;16.30;99.90
52889;DHT22;41413;52.770;6.892;2022-08-19T05:04:27;16.30;99.90
52889;DHT22;41413;52.770;6.892;2022-08-19T05:06:58;16.30;99.90
52889;DHT22;41413;52.770;6.892;2022-08-19T05:09:27;16.30;99.90
52889;DHT22;41413;52.770;6.892;2022-08-19T05:12:14;16.20;99.90
52889;DHT22;41413;52.770;6.892;2022-08-19T05:14:42;16.30;99.90
52889;DHT22;41413;52.770;6.892;2022-08-19T05:17:08;16.30;99.90
52889;DHT22;41413;52.770;6.892;2022-08-19T05:19:55;16.30;99.90
52889;DHT22;41413;52.770;6.892;2022-08-19T05:22:42;16.30;99.90
52889;DHT22;41413;52.770;6.892;2022-08-19T05:25:17;16.30;99.90
52889;DHT22;41413;52.770;6.892;2022-08-19T05:27:45;16.40;99.90
52889;DHT22;41413;52.770;6.892;2022-08-19T05:30:13;16.40;99.90
52889;DHT22;41413;52.770;6.892;2022-08-19T05:32:40;16.50;99.90
52889;DHT22;41413;52.770;6.892;2022-08-19T05:35:07;16.40;99.90
52889;DHT22;41413;52.770;6.892;2022-08-19T05:37:34;16.40;99.90
52889;DHT22;41413;52.770;6.892;2022-08-19T05:40:02;16.50;99.90
52889;DHT22;41413;52.770;6.892;2022-08-19T05:42:29;16.50;99.90
52889;DHT22;41413;52.770;6.892;2022-08-19T05:44:56;16.60;99.90
52889;DHT22;41413;52.770;6.892;2022-08-19T05:47:23;16.60;99.90
52889;DHT22;41413;52.770;6.892;2022-08-19T05:49:50;16.60;99.90
52889;DHT22;41413;52.770;6.892;2022-08-19T05:52:17;16.70;99.90
52889;DHT22;41413;52.770;6.892;2022-08-19T05:54:45;16.70;99.90
52889;DHT22;41413;52.770;6.892;2022-08-19T05:57:17;16.70;99.90
52889;DHT22;41413;52.770;6.892;2022-08-19T05:59:44;16.80;99.90
52889;DHT22;41413;52.770;6.892;2022-08-19T06:02:25;16.80;99.90
52889;DHT22;41413;52.770;6.892;2022-08-19T06:04:52;16.80;99.90
52889;DHT22;41413;52.770;6.892;2022-08-19T06:07:19;16.90;99.90
52889;DHT22;41413;52.770;6.892;2022-08-19T06:09:46;16.90;99.90
52889;DHT22;41413;52.770;6.892;2022-08-19T06:12:31;16.90;99.90
52889;DHT22;41413;52.770;6.892;2022-08-19T06:15:07;16.90;99.90
52889;DHT22;41413;52.770;6.892;2022-08-19T06:17:35;17.00;99.90
52889;DHT22;41413;52.770;6.892;2022-08-19T06:20:07;17.10;99.90
52889;DHT22;41413;52.770;6.892;2022-08-19T06:22:42;17.20;99.90
52889;DHT22;41413;52.770;6.892;2022-08-19T06:25:10;17.50;99.90
52889;DHT22;41413;52.770;6.892;2022-08-19T06:27:37;17.50;99.90
52889;DHT22;41413;52.770;6.892;2022-08-19T06:30:24;17.60;99.90
52889;DHT22;41413;52.770;6.892;2022-08-19T06:32:51;17.70;99.90
52889;DHT22;41413;52.770;6.892;2022-08-19T06:35:18;17.80;99.90
52889;DHT22;41413;52.770;6.892;2022-08-19T06:37:45;17.80;99.90
52889;DHT22;41413;52.770;6.892;2022-08-19T06:40:12;17.90;99.90
52889;DHT22;41413;52.770;6.892;2022-08-19T06:42:39;17.90;99.90
52889;DHT22;41413;52.770;6.892;2022-08-19T06:45:21;18.00;99.90
52889;DHT22;41413;52.770;6.892;2022-08-19T06:48:00;18.00;99.90
52889;DHT22;41413;52.770;6.892;2022-08-19T06:50:27;18.10;99.90
52889;DHT22;41413;52.770;6.892;2022-08-19T06:52:53;18.10;99.90
52889;DHT22;41413;52.770;6.892;2022-08-19T06:55:21;18.20;99.90
52889;DHT22;41413;52.770;6.892;2022-08-19T06:57:47;18.20;99.90
52889;DHT22;41413;52.770;6.892;2022-08-19T07:00:15;18.30;99.90
52889;DHT22;41413;52.770;6.892;2022-08-19T07:02:43;18.30;99.90
52889;DHT22;41413;52.770;6.892;2022-08-19T07:05:21;18.40;99.90
52889;DHT22;41413;52.770;6.892;2022-08-19T07:07:48;18.40;99.90
52889;DHT22;41413;52.770;6.892;2022-08-19T07:10:16;18.40;99.90
52889;DHT22;41413;52.770;6.892;2022-08-19T07:12:43;18.50;99.90
52889;DHT22;41413;52.770;6.892;2022-08-19T07:15:11;18.60;99.90
52889;DHT22;41413;52.770;6.892;2022-08-19T07:17:38;18.60;99.90
52889;DHT22;41413;52.770;6.892;2022-08-19T07:20:08;18.70;99.90
52889;DHT22;41413;52.770;6.892;2022-08-19T07:22:39;18.80;99.90
52889;DHT22;41413;52.770;6.892;2022-08-19T07:25:09;18.90;99.90
52889;DHT22;41413;52.770;6.892;2022-08-19T07:27:36;18.90;99.90
52889;DHT22;41413;52.770;6.892;2022-08-19T07:30:06;19.00;99.90
52889;DHT22;41413;52.770;6.892;2022-08-19T07:32:37;19.10;99.90
52889;DHT22;41413;52.770;6.892;2022-08-19T07:35:04;19.10;99.90
52889;DHT22;41413;52.770;6.892;2022-08-19T07:37:32;19.10;99.90
52889;DHT22;41413;52.770;6.892;2022-08-19T07:40:00;19.10;99.90
52889;DHT22;41413;52.770;6.892;2022-08-19T07:42:27;19.20;99.90
52889;DHT22;41413;52.770;6.892;2022-08-19T07:44:57;19.20;99.90
52889;DHT22;41413;52.770;6.892;2022-08-19T07:47:24;19.00;99.90
52889;DHT22;41413;52.770;6.892;2022-08-19T07:50:11;19.20;99.90
52889;DHT22;41413;52.770;6.892;2022-08-19T07:52:38;19.30;99.90
52889;DHT22;41413;52.770;6.892;2022-08-19T07:55:08;19.40;99.90
52889;DHT22;41413;52.770;6.892;2022-08-19T07:57:56;19.40;99.90
52889;DHT22;41413;52.770;6.892;2022-08-19T08:00:23;19.50;99.90
52889;DHT22;41413;52.770;6.892;2022-08-19T08:02:51;19.60;99.90
52889;DHT22;41413;52.770;6.892;2022-08-19T08:05:22;19.80;99.90
52889;DHT22;41413;52.770;6.892;2022-08-19T08:08:13;19.80;99.90
52889;DHT22;41413;52.770;6.892;2022-08-19T08:10:59;20.20;99.90
52889;DHT22;41413;52.770;6.892;2022-08-19T08:13:26;20.70;99.90
52889;DHT22;41413;52.770;6.892;2022-08-19T08:15:53;20.90;99.90
52889;DHT22;41413;52.770;6.892;2022-08-19T08:18:22;21.00;99.90
52889;DHT22;41413;52.770;6.892;2022-08-19T08:20:54;20.90;99.90
52889;DHT22;41413;52.770;6.892;2022-08-19T08:23:21;20.90;99.90
52889;DHT22;41413;52.770;6.892;2022-08-19T08:25:57;21.00;99.90
52889;DHT22;41413;52.770;6.892;2022-08-19T08:28:25;21.00;99.90
52889;DHT22;41413;52.770;6.892;2022-08-19T08:30:56;21.10;99.90
52889;DHT22;41413;52.770;6.892;2022-08-19T08:33:25;21.20;99.90
52889;DHT22;41413;52.770;6.892;2022-08-19T08:36:01;21.30;99.90
52889;DHT22;41413;52.770;6.892;2022-08-19T08:38:30;21.40;99.90
52889;DHT22;41413;52.770;6.892;2022-08-19T08:41:34;21.60;99.90
52889;DHT22;41413;52.770;6.892;2022-08-19T08:44:02;22.00;99.90
52889;DHT22;41413;52.770;6.892;2022-08-19T08:46:44;23.00;99.90
52889;DHT22;41413;52.770;6.892;2022-08-19T08:52:24;25.00;99.90
52889;DHT22;41413;52.770;6.892;2022-08-19T08:55:00;25.90;99.90
52889;DHT22;41413;52.770;6.892;2022-08-19T08:57:49;26.80;99.90
52889;DHT22;41413;52.770;6.892;2022-08-19T09:02:47;28.10;99.90
52889;DHT22;41413;52.770;6.892;2022-08-19T09:05:18;28.20;99.90
52889;DHT22;41413;52.770;6.892;2022-08-19T09:10:20;27.90;99.90
52889;DHT22;41413;52.770;6.892;2022-08-19T09:13:15;28.10;99.90
52889;DHT22;41413;52.770;6.892;2022-08-19T09:15:52;28.30;99.90
52889;DHT22;41413;52.770;6.892;2022-08-19T09:18:20;28.30;99.90
52889;DHT22;41413;52.770;6.892;2022-08-19T09:20:47;28.10;98.50
52889;DHT22;41413;52.770;6.892;2022-08-19T09:23:15;27.80;99.90
52889;DHT22;41413;52.770;6.892;2022-08-19T09:25:42;28.10;99.90
52889;DHT22;41413;52.770;6.892;2022-08-19T09:28:08;28.30;99.90
52889;DHT22;41413;52.770;6.892;2022-08-19T09:30:47;28.50;99.90
52889;DHT22;41413;52.770;6.892;2022-08-19T09:33:14;29.00;99.60
52889;DHT22;41413;52.770;6.892;2022-08-19T09:35:42;28.50;97.30
52889;DHT22;41413;52.770;6.892;2022-08-19T09:38:18;28.40;98.60
52889;DHT22;41413;52.770;6.892;2022-08-19T09:40:44;28.70;99.00
52889;DHT22;41413;52.770;6.892;2022-08-19T09:43:11;28.90;98.30
52889;DHT22;41413;52.770;6.892;2022-08-19T09:45:39;28.80;98.40
52889;DHT22;41413;52.770;6.892;2022-08-19T09:48:06;29.00;98.00
52889;DHT22;41413;52.770;6.892;2022-08-19T09:50:35;28.80;97.10
52889;DHT22;41413;52.770;6.892;2022-08-19T09:53:17;29.10;97.30
52889;DHT22;41413;52.770;6.892;2022-08-19T09:55:44;29.10;96.90
52889;DHT22;41413;52.770;6.892;2022-08-19T09:58:11;29.20;96.80
52889;DHT22;41413;52.770;6.892;2022-08-19T10:00:38;29.20;96.70
52889;DHT22;41413;52.770;6.892;2022-08-19T10:03:05;29.60;96.40
52889;DHT22;41413;52.770;6.892;2022-08-19T10:05:34;29.70;95.90
52889;DHT22;41413;52.770;6.892;2022-08-19T10:08:25;29.90;95.80
52889;DHT22;41413;52.770;6.892;2022-08-19T10:10:54;29.70;95.10
52889;DHT22;41413;52.770;6.892;2022-08-19T10:13:25;29.70;94.70
52889;DHT22;41413;52.770;6.892;2022-08-19T10:15:54;29.80;94.60
52889;DHT22;41413;52.770;6.892;2022-08-19T10:18:23;29.90;94.60
52889;DHT22;41413;52.770;6.892;2022-08-19T10:20:52;29.90;94.40
52889;DHT22;41413;52.770;6.892;2022-08-19T10:23:20;30.10;94.40
52889;DHT22;41413;52.770;6.892;2022-08-19T10:25:48;30.10;93.90
52889;DHT22;41413;52.770;6.892;2022-08-19T10:28:15;29.70;93.60
52889;DHT22;41413;52.770;6.892;2022-08-19T10:30:45;29.80;93.60
52889;DHT22;41413;52.770;6.892;2022-08-19T10:33:12;29.70;92.60
52889;DHT22;41413;52.770;6.892;2022-08-19T10:35:40;29.90;93.70
52889;DHT22;41413;52.770;6.892;2022-08-19T10:38:22;29.80;92.80
52889;DHT22;41413;52.770;6.892;2022-08-19T10:40:58;29.50;92.50
52889;DHT22;41413;52.770;6.892;2022-08-19T10:43:24;29.60;93.20
52889;DHT22;41413;52.770;6.892;2022-08-19T10:45:53;30.00;93.40
52889;DHT22;41413;52.770;6.892;2022-08-19T10:48:22;29.80;92.30
52889;DHT22;41413;52.770;6.892;2022-08-19T10:50:49;29.90;92.50
52889;DHT22;41413;52.770;6.892;2022-08-19T10:53:34;30.20;92.80
52889;DHT22;41413;52.770;6.892;2022-08-19T10:56:01;29.70;91.50
52889;DHT22;41413;52.770;6.892;2022-08-19T10:58:47;29.50;91.30
52889;DHT22;41413;52.770;6.892;2022-08-19T11:01:15;29.20;91.10
52889;DHT22;41413;52.770;6.892;2022-08-19T11:03:42;29.20;91.60
52889;DHT22;41413;52.770;6.892;2022-08-19T11:06:08;29.20;90.90
52889;DHT22;41413;52.770;6.892;2022-08-19T11:08:36;29.10;91.10
52889;DHT22;41413;52.770;6.892;2022-08-19T11:11:05;29.10;91.60
52889;DHT22;41413;52.770;6.892;2022-08-19T11:13:36;29.20;91.60
52889;DHT22;41413;52.770;6.892;2022-08-19T11:16:07;29.40;91.50
52889;DHT22;41413;52.770;6.892;2022-08-19T11:18:39;29.60;91.60
52889;DHT22;41413;52.770;6.892;2022-08-19T11:21:08;30.00;91.30
52889;DHT22;41413;52.770;6.892;2022-08-19T11:23:35;30.30;91.30
52889;DHT22;41413;52.770;6.892;2022-08-19T11:26:02;30.20;91.20
52889;DHT22;41413;52.770;6.892;2022-08-19T11:28:29;29.50;89.40
52889;DHT22;41413;52.770;6.892;2022-08-19T11:30:56;28.90;90.40
52889;DHT22;41413;52.770;6.892;2022-08-19T11:33:23;29.30;90.90
52889;DHT22;41413;52.770;6.892;2022-08-19T11:35:51;29.40;90.20
52889;DHT22;41413;52.770;6.892;2022-08-19T11:38:17;29.50;90.70
52889;DHT22;41413;52.770;6.892;2022-08-19T11:40:54;29.70;90.70
52889;DHT22;41413;52.770;6.892;2022-08-19T11:43:21;29.50;90.00
52889;DHT22;41413;52.770;6.892;2022-08-19T11:45:47;29.50;90.60
52889;DHT22;41413;52.770;6.892;2022-08-19T11:48:15;29.70;90.50
52889;DHT22;41413;52.770;6.892;2022-08-19T11:50:41;29.80;90.60
52889;DHT22;41413;52.770;6.892;2022-08-19T11:53:09;30.10;90.50
52889;DHT22;41413;52.770;6.892;2022-08-19T11:55:38;30.10;89.90
52889;DHT22;41413;52.770;6.892;2022-08-19T11:58:10;30.20;90.00
52889;DHT22;41413;52.770;6.892;2022-08-19T12:00:44;30.10;88.90
52889;DHT22;41413;52.770;6.892;2022-08-19T12:03:12;29.90;87.70
52889;DHT22;41413;52.770;6.892;2022-08-19T12:05:40;29.90;86.80
52889;DHT22;41413;52.770;6.892;2022-08-19T12:08:07;29.70;88.80
52889;DHT22;41413;52.770;6.892;2022-08-19T12:10:35;30.00;89.00
52889;DHT22;41413;52.770;6.892;2022-08-19T12:13:02;30.20;88.80
52889;DHT22;41413;52.770;6.892;2022-08-19T12:15:29;30.20;87.70
52889;DHT22;41413;52.770;6.892;2022-08-19T12:18:03;30.30;88.00
52889;DHT22;41413;52.770;6.892;2022-08-19T12:20:30;30.40;87.80
52889;DHT22;41413;52.770;6.892;2022-08-19T12:23:01;30.20;86.30
52889;DHT22;41413;52.770;6.892;2022-08-19T12:25:27;30.20;88.00
52889;DHT22;41413;52.770;6.892;2022-08-19T12:27:54;30.20;85.00
52889;DHT22;41413;52.770;6.892;2022-08-19T12:30:23;30.20;86.60
52889;DHT22;41413;52.770;6.892;2022-08-19T12:32:50;30.20;86.40
52889;DHT22;41413;52.770;6.892;2022-08-19T12:35:18;30.10;86.10
52889;DHT22;41413;52.770;6.892;2022-08-19T12:37:48;29.90;84.90
52889;DHT22;41413;52.770;6.892;2022-08-19T12:40:23;29.60;86.20
52889;DHT22;41413;52.770;6.892;2022-08-19T12:42:52;29.80;86.90
52889;DHT22;41413;52.770;6.892;2022-08-19T12:45:19;29.90;87.30
52889;DHT22;41413;52.770;6.892;2022-08-19T12:47:46;29.90;87.00
52889;DHT22;41413;52.770;6.892;2022-08-19T12:50:15;30.00;85.50
52889;DHT22;41413;52.770;6.892;2022-08-19T12:52:42;30.30;85.60
52889;DHT22;41413;52.770;6.892;2022-08-19T12:55:09;30.50;85.60
52889;DHT22;41413;52.770;6.892;2022-08-19T12:57:37;30.70;86.30
52889;DHT22;41413;52.770;6.892;2022-08-19T13:00:15;30.50;85.30
52889;DHT22;41413;52.770;6.892;2022-08-19T13:02:46;30.70;85.40
52889;DHT22;41413;52.770;6.892;2022-08-19T13:05:18;30.40;84.40
52889;DHT22;41413;52.770;6.892;2022-08-19T13:07:50;30.20;84.20
52889;DHT22;41413;52.770;6.892;2022-08-19T13:10:20;30.30;82.40
52889;DHT22;41413;52.770;6.892;2022-08-19T13:12:48;29.60;81.50
52889;DHT22;41413;52.770;6.892;2022-08-19T13:15:17;29.40;81.90
52889;DHT22;41413;52.770;6.892;2022-08-19T13:17:51;29.00;83.30
52889;DHT22;41413;52.770;6.892;2022-08-19T13:20:21;28.80;84.10
52889;DHT22;41413;52.770;6.892;2022-08-19T13:22:48;28.90;85.20
52889;DHT22;41413;52.770;6.892;2022-08-19T13:25:16;29.10;86.10
52889;DHT22;41413;52.770;6.892;2022-08-19T13:27:46;28.80;84.40
52889;DHT22;41413;52.770;6.892;2022-08-19T13:30:14;28.80;83.70
52889;DHT22;41413;52.770;6.892;2022-08-19T13:33:00;28.90;84.40
52889;DHT22;41413;52.770;6.892;2022-08-19T13:35:48;28.90;81.40
52889;DHT22;41413;52.770;6.892;2022-08-19T13:38:18;28.90;82.40
52889;DHT22;41413;52.770;6.892;2022-08-19T13:40:45;29.20;82.40
52889;DHT22;41413;52.770;6.892;2022-08-19T13:43:13;29.40;82.00
52889;DHT22;41413;52.770;6.892;2022-08-19T13:45:53;29.50;82.40
52889;DHT22;41413;52.770;6.892;2022-08-19T13:48:22;29.40;81.40
52889;DHT22;41413;52.770;6.892;2022-08-19T13:50:49;29.50;81.60
52889;DHT22;41413;52.770;6.892;2022-08-19T13:53:17;29.40;81.00
52889;DHT22;41413;52.770;6.892;2022-08-19T13:55:44;29.20;79.90
52889;DHT22;41413;52.770;6.892;2022-08-19T13:58:11;29.30;80.80
52889;DHT22;41413;52.770;6.892;2022-08-19T14:00:42;29.00;79.90
52889;DHT22;41413;52.770;6.892;2022-08-19T14:03:09;28.80;81.50
52889;DHT22;41413;52.770;6.892;2022-08-19T14:05:37;28.80;82.20
52889;DHT22;41413;52.770;6.892;2022-08-19T14:08:04;28.40;81.80
52889;DHT22;41413;52.770;6.892;2022-08-19T14:10:32;28.60;81.90
52889;DHT22;41413;52.770;6.892;2022-08-19T14:13:01;28.30;81.50
52889;DHT22;41413;52.770;6.892;2022-08-19T14:15:29;28.40;81.20
52889;DHT22;41413;52.770;6.892;2022-08-19T14:17:56;28.40;79.70
52889;DHT22;41413;52.770;6.892;2022-08-19T14:20:23;28.40;81.10
52889;DHT22;41413;52.770;6.892;2022-08-19T14:22:52;28.50;81.60
52889;DHT22;41413;52.770;6.892;2022-08-19T14:25:22;28.70;82.20
52889;DHT22;41413;52.770;6.892;2022-08-19T14:27:50;28.80;82.20
52889;DHT22;41413;52.770;6.892;2022-08-19T14:30:20;28.90;82.50
52889;DHT22;41413;52.770;6.892;2022-08-19T14:32:47;28.90;82.80
52889;DHT22;41413;52.770;6.892;2022-08-19T14:35:15;28.90;83.20
52889;DHT22;41413;52.770;6.892;2022-08-19T14:37:42;28.90;83.00
52889;DHT22;41413;52.770;6.892;2022-08-19T14:40:13;28.80;82.60
52889;DHT22;41413;52.770;6.892;2022-08-19T14:42:40;28.60;80.00
52889;DHT22;41413;52.770;6.892;2022-08-19T14:45:09;28.80;80.60
52889;DHT22;41413;52.770;6.892;2022-08-19T14:47:36;28.90;80.70
52889;DHT22;41413;52.770;6.892;2022-08-19T14:50:10;28.70;81.00
52889;DHT22;41413;52.770;6.892;2022-08-19T14:52:47;28.90;81.80
52889;DHT22;41413;52.770;6.892;2022-08-19T14:55:16;28.80;80.90
52889;DHT22;41413;52.770;6.892;2022-08-19T14:57:44;28.80;81.80
52889;DHT22;41413;52.770;6.892;2022-08-19T15:00:11;28.70;81.80
52889;DHT22;41413;52.770;6.892;2022-08-19T15:02:40;28.80;82.50
52889;DHT22;41413;52.770;6.892;2022-08-19T15:05:07;28.80;82.70
52889;DHT22;41413;52.770;6.892;2022-08-19T15:07:34;28.60;82.40
52889;DHT22;41413;52.770;6.892;2022-08-19T15:10:01;28.30;81.90
52889;DHT22;41413;52.770;6.892;2022-08-19T15:12:27;28.30;82.70
52889;DHT22;41413;52.770;6.892;2022-08-19T15:14:54;28.40;82.60
52889;DHT22;41413;52.770;6.892;2022-08-19T15:17:22;28.20;82.20
52889;DHT22;41413;52.770;6.892;2022-08-19T15:20:11;28.30;82.80
52889;DHT22;41413;52.770;6.892;2022-08-19T15:22:39;28.30;84.10
52889;DHT22;41413;52.770;6.892;2022-08-19T15:25:07;28.30;85.30
52889;DHT22;41413;52.770;6.892;2022-08-19T15:27:37;28.20;86.90
52889;DHT22;41413;52.770;6.892;2022-08-19T15:30:07;28.20;87.60
52889;DHT22;41413;52.770;6.892;2022-08-19T15:32:34;28.00;89.20
52889;DHT22;41413;52.770;6.892;2022-08-19T15:35:03;27.90;90.10
52889;DHT22;41413;52.770;6.892;2022-08-19T15:37:30;27.90;90.50
52889;DHT22;41413;52.770;6.892;2022-08-19T15:40:03;27.90;90.90
52889;DHT22;41413;52.770;6.892;2022-08-19T15:42:30;27.90;91.30
52889;DHT22;41413;52.770;6.892;2022-08-19T15:44:57;27.70;92.20
52889;DHT22;41413;52.770;6.892;2022-08-19T15:47:28;27.70;92.30
52889;DHT22;41413;52.770;6.892;2022-08-19T15:50:13;27.60;92.80
52889;DHT22;41413;52.770;6.892;2022-08-19T15:55:25;27.50;93.80
52889;DHT22;41413;52.770;6.892;2022-08-19T15:58:05;27.40;94.10
52889;DHT22;41413;52.770;6.892;2022-08-19T16:00:57;27.40;93.80